createdAt,value
2022-10-31T00:01:12.615Z,4.93
2022-10-31T00:03:39.711Z,2.95
2022-10-31T00:06:06.834Z,3.97
2022-10-31T00:08:35.100Z,3.83
2022-10-31T00:11:02.188Z,3.80
2022-10-31T00:13:29.272Z,3.95
2022-10-31T00:15:56.419Z,4.13
2022-10-31T00:18:23.526Z,4.50
2022-10-31T00:20:50.676Z,3.70
2022-10-31T00:23:17.738Z,4.30
2022-10-31T00:25:44.987Z,3.75
2022-10-31T00:28:13.243Z,4.43
2022-10-31T00:30:40.506Z,3.70
2022-10-31T00:33:07.722Z,4.15
2022-10-31T00:35:34.858Z,4.80
2022-10-31T00:38:02.047Z,4.53
2022-10-31T00:40:29.266Z,4.15
2022-10-31T00:42:56.498Z,4.38
2022-10-31T00:45:23.629Z,3.95
2022-10-31T00:47:50.741Z,3.40
2022-10-31T00:50:17.958Z,4.20
2022-10-31T00:52:45.255Z,3.75
2022-10-31T00:55:12.322Z,2.85
2022-10-31T00:57:39.403Z,3.10
2022-10-31T01:00:06.740Z,4.07
2022-10-31T01:02:34.118Z,3.72
2022-10-31T01:05:01.356Z,4.38
2022-10-31T01:07:28.487Z,3.10
2022-10-31T01:09:55.549Z,3.30
2022-10-31T01:12:22.801Z,2.88
2022-10-31T01:14:49.951Z,3.92
2022-10-31T01:17:17.072Z,3.45
2022-10-31T01:19:44.194Z,4.10
2022-10-31T01:22:11.288Z,5.10
2022-10-31T01:24:38.564Z,6.13
2022-10-31T01:27:05.815Z,4.05
2022-10-31T01:29:32.871Z,5.40
2022-10-31T01:32:00.040Z,3.33
2022-10-31T01:34:27.279Z,5.00
2022-10-31T01:36:54.335Z,3.33
2022-10-31T01:39:21.463Z,3.10
2022-10-31T01:41:49.936Z,3.70
2022-10-31T01:44:17.309Z,3.22
2022-10-31T01:46:50.206Z,4.22
2022-10-31T01:49:25.450Z,3.38
2022-10-31T01:51:58.720Z,4.18
2022-10-31T01:54:28.226Z,4.25
2022-10-31T01:56:57.772Z,2.53
2022-10-31T01:59:26.647Z,3.15
2022-10-31T02:01:54.207Z,4.57
2022-10-31T02:04:21.994Z,4.10
2022-10-31T02:06:51.627Z,4.20
2022-10-31T02:09:19.219Z,4.65
2022-10-31T02:11:46.574Z,4.70
2022-10-31T02:14:13.895Z,4.05
2022-10-31T02:16:41.010Z,4.30
2022-10-31T02:19:10.674Z,4.28
2022-10-31T02:21:48.952Z,4.82
2022-10-31T02:24:16.282Z,3.20
2022-10-31T02:26:51.597Z,4.53
2022-10-31T02:29:45.182Z,4.65
2022-10-31T02:32:22.380Z,4.00
2022-10-31T02:35:00.870Z,4.32
2022-10-31T02:37:48.179Z,3.42
2022-10-31T02:40:23.625Z,4.22
2022-10-31T02:43:01.283Z,4.45
2022-10-31T02:45:35.490Z,3.05
2022-10-31T02:48:05.121Z,3.47
2022-10-31T02:50:36.703Z,2.53
2022-10-31T02:53:04.453Z,4.72
2022-10-31T02:55:31.547Z,3.95
2022-10-31T02:58:01.534Z,2.97
2022-10-31T03:00:30.523Z,1.70
2022-10-31T03:05:51.005Z,4.20
2022-10-31T03:08:28.153Z,3.80
2022-10-31T03:10:57.624Z,3.78
2022-10-31T03:13:43.439Z,4.45
2022-10-31T03:16:11.225Z,4.75
2022-10-31T03:18:42.653Z,5.22
2022-10-31T03:21:13.583Z,4.65
2022-10-31T03:23:41.043Z,2.22
2022-10-31T03:26:09.492Z,2.63
2022-10-31T03:28:39.997Z,4.57
2022-10-31T03:31:08.138Z,4.47
2022-10-31T03:33:37.434Z,4.60
2022-10-31T03:36:05.529Z,3.45
2022-10-31T03:38:33.604Z,4.20
2022-10-31T03:41:02.219Z,3.45
2022-10-31T03:43:31.952Z,2.60
2022-10-31T03:45:59.622Z,3.78
2022-10-31T03:48:27.053Z,4.90
2022-10-31T03:51:09.083Z,4.78
2022-10-31T03:53:38.695Z,4.88
2022-10-31T03:56:14.780Z,4.63
2022-10-31T03:58:47.015Z,4.80
2022-10-31T04:01:17.105Z,4.80
2022-10-31T04:03:44.910Z,3.97
2022-10-31T04:06:14.762Z,5.35
2022-10-31T04:08:55.599Z,3.58
2022-10-31T04:11:24.858Z,3.75
2022-10-31T04:13:52.969Z,5.72
2022-10-31T04:16:20.383Z,4.18
2022-10-31T04:18:47.570Z,4.45
2022-10-31T04:21:14.812Z,2.85
2022-10-31T04:23:41.930Z,4.32
2022-10-31T04:26:10.092Z,4.95
2022-10-31T04:28:37.337Z,4.32
2022-10-31T04:31:04.464Z,4.40
2022-10-31T04:33:31.790Z,5.13
2022-10-31T04:35:58.869Z,4.35
2022-10-31T04:38:26.265Z,3.95
2022-10-31T04:40:53.425Z,5.05
2022-10-31T04:45:52.578Z,5.25
2022-10-31T04:48:19.805Z,4.07
2022-10-31T04:50:47.141Z,4.13
2022-10-31T04:53:14.358Z,3.90
2022-10-31T04:55:41.419Z,3.75
2022-10-31T04:58:08.533Z,4.85
2022-10-31T05:00:35.773Z,3.47
2022-10-31T05:03:03.403Z,4.95
2022-10-31T05:05:32.524Z,4.70
2022-10-31T05:07:59.659Z,3.63
2022-10-31T05:10:28.106Z,5.38
2022-10-31T05:12:59.839Z,5.45
2022-10-31T05:15:27.983Z,5.45
2022-10-31T05:17:55.731Z,4.13
2022-10-31T05:20:24.315Z,6.10
2022-10-31T05:22:52.384Z,4.97
2022-10-31T05:25:20.250Z,6.30
2022-10-31T05:27:48.654Z,5.30
2022-10-31T05:30:18.148Z,2.95
2022-10-31T05:32:46.223Z,2.88
2022-10-31T05:35:14.546Z,6.18
2022-10-31T05:37:41.700Z,5.82
2022-10-31T05:40:09.913Z,6.20
2022-10-31T05:42:37.149Z,6.30
2022-10-31T05:45:04.406Z,6.90
2022-10-31T05:47:31.466Z,6.93
2022-10-31T05:49:58.555Z,9.98
2022-10-31T05:52:26.402Z,9.70
2022-10-31T05:54:53.513Z,8.20
2022-10-31T05:57:20.675Z,9.85
2022-10-31T05:59:51.053Z,12.05
2022-10-31T06:02:21.949Z,10.25
2022-10-31T06:04:49.375Z,12.95
2022-10-31T06:07:16.509Z,11.00
2022-10-31T06:09:43.810Z,13.82
2022-10-31T06:12:11.175Z,13.63
2022-10-31T06:14:38.234Z,13.23
2022-10-31T06:17:05.340Z,12.32
2022-10-31T06:19:32.457Z,13.80
2022-10-31T06:21:59.582Z,15.25
2022-10-31T06:24:26.666Z,15.73
2022-10-31T06:26:53.784Z,15.60
2022-10-31T06:29:21.031Z,14.20
2022-10-31T06:31:48.134Z,15.02
2022-10-31T06:34:15.202Z,15.02
2022-10-31T06:36:42.300Z,16.35
2022-10-31T06:39:09.464Z,15.68
2022-10-31T06:41:37.574Z,16.38
2022-10-31T06:44:08.033Z,13.98
2022-10-31T06:46:36.170Z,14.13
2022-10-31T06:49:03.230Z,15.35
2022-10-31T06:51:30.322Z,14.70
2022-10-31T06:53:57.373Z,13.63
2022-10-31T06:56:24.573Z,15.40
2022-10-31T06:58:51.651Z,14.65
2022-10-31T07:01:18.888Z,12.73
2022-10-31T07:03:46.071Z,14.10
2022-10-31T07:06:13.189Z,13.85
2022-10-31T07:08:40.953Z,13.27
2022-10-31T07:11:08.049Z,14.50
2022-10-31T07:13:35.132Z,13.23
2022-10-31T07:16:03.293Z,15.48
2022-10-31T07:18:30.412Z,14.82
2022-10-31T07:20:57.523Z,16.63
2022-10-31T07:23:24.904Z,16.55
2022-10-31T07:25:56.265Z,16.20
2022-10-31T07:28:23.327Z,13.68
2022-10-31T07:30:57.243Z,16.10
2022-10-31T07:33:26.701Z,14.60
2022-10-31T07:35:54.084Z,16.95
2022-10-31T07:38:21.160Z,17.33
2022-10-31T07:40:52.751Z,13.20
2022-10-31T07:43:20.060Z,14.32
2022-10-31T07:45:52.371Z,15.80
2022-10-31T07:48:19.607Z,14.82
2022-10-31T07:50:47.219Z,13.82
2022-10-31T07:53:14.913Z,14.60
2022-10-31T07:55:42.240Z,13.75
2022-10-31T07:58:13.406Z,13.98
2022-10-31T08:00:41.838Z,14.57
2022-10-31T08:03:10.289Z,16.58
2022-10-31T08:05:37.646Z,15.48
2022-10-31T08:08:05.528Z,19.23
2022-10-31T08:10:32.867Z,17.17
2022-10-31T08:13:01.085Z,24.83
2022-10-31T08:15:28.329Z,19.83
2022-10-31T08:17:55.707Z,18.67
2022-10-31T08:20:23.142Z,18.88
2022-10-31T08:22:56.845Z,15.63
2022-10-31T08:25:24.057Z,15.43
2022-10-31T08:27:52.569Z,15.05
2022-10-31T08:30:20.265Z,15.30
2022-10-31T08:32:48.613Z,14.52
2022-10-31T08:35:15.952Z,16.45
2022-10-31T08:37:43.290Z,16.50
2022-10-31T08:40:10.774Z,16.10
2022-10-31T08:42:37.861Z,16.05
2022-10-31T08:45:05.207Z,16.35
2022-10-31T08:47:32.299Z,16.27
2022-10-31T08:49:59.443Z,14.40
2022-10-31T08:52:51.214Z,15.13
2022-10-31T08:55:14.318Z,16.60
2022-10-31T08:57:41.448Z,15.73
2022-10-31T09:00:08.958Z,16.55
2022-10-31T09:02:36.108Z,16.50
2022-10-31T09:05:03.242Z,14.90
2022-10-31T09:07:30.448Z,16.45
2022-10-31T09:09:57.518Z,16.48
2022-10-31T09:12:25.203Z,16.20
2022-10-31T09:14:52.474Z,16.55
2022-10-31T09:17:19.572Z,17.02
2022-10-31T09:19:46.739Z,17.00
2022-10-31T09:22:13.804Z,16.17
2022-10-31T09:24:40.900Z,17.48
2022-10-31T09:27:09.943Z,16.58
2022-10-31T09:29:37.101Z,16.52
2022-10-31T09:32:04.225Z,17.48
2022-10-31T09:34:31.396Z,15.57
2022-10-31T09:36:58.722Z,17.60
2022-10-31T09:39:26.046Z,15.45
2022-10-31T09:41:56.304Z,14.70
2022-10-31T09:44:35.624Z,14.40
2022-10-31T09:47:07.472Z,13.60
2022-10-31T09:49:34.628Z,14.55
2022-10-31T09:52:07.052Z,14.18
2022-10-31T09:54:37.318Z,13.40
2022-10-31T09:57:04.867Z,14.45
2022-10-31T09:59:36.593Z,14.52
2022-10-31T10:02:12.454Z,13.35
2022-10-31T10:04:44.918Z,13.02
2022-10-31T10:07:18.216Z,13.25
2022-10-31T10:09:46.482Z,12.95
2022-10-31T10:12:37.192Z,12.85
2022-10-31T10:15:17.339Z,12.73
2022-10-31T10:17:53.352Z,12.75
2022-10-31T10:20:30.826Z,10.35
2022-10-31T10:23:14.382Z,12.52
2022-10-31T10:25:42.719Z,11.43
2022-10-31T10:28:23.662Z,12.52
2022-10-31T10:30:53.893Z,12.77
2022-10-31T10:33:26.175Z,13.18
2022-10-31T10:35:59.335Z,12.80
2022-10-31T10:38:33.911Z,12.38
2022-10-31T10:41:02.631Z,13.10
2022-10-31T10:43:38.317Z,12.27
2022-10-31T10:46:42.695Z,11.30
2022-10-31T10:49:24.868Z,12.45
2022-10-31T10:52:19.305Z,12.50
2022-10-31T10:55:01.671Z,12.68
2022-10-31T10:57:40.141Z,13.48
2022-10-31T11:00:21.374Z,11.88
2022-10-31T11:02:49.304Z,12.65
2022-10-31T11:05:36.891Z,13.20
2022-10-31T11:08:06.250Z,13.88
2022-10-31T11:10:34.395Z,12.90
2022-10-31T11:13:08.963Z,12.45
2022-10-31T11:18:03.402Z,11.98
2022-10-31T11:20:32.937Z,13.43
2022-10-31T11:23:04.995Z,11.30
2022-10-31T11:25:32.078Z,12.20
2022-10-31T11:28:08.252Z,12.65
2022-10-31T11:30:45.093Z,12.55
2022-10-31T11:33:44.747Z,12.02
2022-10-31T11:36:20.623Z,12.23
2022-10-31T11:38:47.839Z,13.63
2022-10-31T11:41:17.687Z,12.50
2022-10-31T11:43:50.593Z,12.75
2022-10-31T11:46:22.331Z,12.27
2022-10-31T11:48:50.900Z,13.18
2022-10-31T11:51:34.817Z,13.07
2022-10-31T11:54:03.572Z,10.70
2022-10-31T11:56:40.831Z,11.77
2022-10-31T11:59:17.442Z,13.68
2022-10-31T12:01:49.330Z,13.70
2022-10-31T12:04:18.109Z,13.18
2022-10-31T12:06:49.774Z,13.82
2022-10-31T12:09:23.011Z,13.48
2022-10-31T12:11:55.980Z,13.90
2022-10-31T12:14:23.093Z,14.00
2022-10-31T12:16:53.006Z,15.05
2022-10-31T12:19:32.105Z,14.00
2022-10-31T12:22:18.045Z,14.60
2022-10-31T12:25:02.609Z,14.93
2022-10-31T12:27:48.390Z,14.23
2022-10-31T12:30:18.965Z,14.95
2022-10-31T12:33:02.638Z,14.23
2022-10-31T12:35:42.751Z,14.82
2022-10-31T12:38:13.023Z,14.85
2022-10-31T12:40:40.121Z,14.63
2022-10-31T12:43:12.821Z,15.18
2022-10-31T12:45:45.965Z,15.18
2022-10-31T12:48:16.200Z,13.68
2022-10-31T12:50:46.292Z,13.88
2022-10-31T12:53:16.146Z,15.50
2022-10-31T12:55:49.912Z,14.23
2022-10-31T12:58:22.847Z,15.63
2022-10-31T13:00:53.129Z,14.45
2022-10-31T13:03:34.667Z,15.35
2022-10-31T13:06:06.792Z,13.18
2022-10-31T13:08:49.673Z,14.13
2022-10-31T13:11:32.137Z,14.85
2022-10-31T13:14:03.444Z,15.23
2022-10-31T13:16:32.551Z,15.35
2022-10-31T13:19:03.012Z,15.40
2022-10-31T13:21:36.762Z,14.88
2022-10-31T13:24:05.934Z,14.68
2022-10-31T13:26:38.060Z,16.02
2022-10-31T13:29:10.082Z,15.52
2022-10-31T13:31:41.139Z,14.15
2022-10-31T13:34:12.164Z,13.45
2022-10-31T13:36:42.422Z,14.90
2022-10-31T13:39:18.403Z,14.48
2022-10-31T13:41:48.673Z,14.35
2022-10-31T13:44:16.037Z,14.60
2022-10-31T13:46:44.270Z,14.10
2022-10-31T13:49:29.768Z,14.23
2022-10-31T13:52:12.195Z,15.10
2022-10-31T13:54:40.888Z,14.93
2022-10-31T13:57:19.434Z,14.43
2022-10-31T13:59:54.689Z,14.40
2022-10-31T14:02:29.340Z,14.32
2022-10-31T14:04:59.753Z,14.50
2022-10-31T14:07:28.739Z,14.50
2022-10-31T14:10:06.537Z,13.75
2022-10-31T14:12:37.271Z,14.27
2022-10-31T14:15:07.048Z,15.50
2022-10-31T14:17:40.038Z,13.60
2022-10-31T14:20:13.404Z,13.65
2022-10-31T14:22:42.823Z,14.05
2022-10-31T14:25:45.609Z,13.77
2022-10-31T14:28:31.478Z,13.98
2022-10-31T14:30:59.888Z,15.15
2022-10-31T14:38:39.733Z,14.60
2022-10-31T14:41:28.095Z,14.35
2022-10-31T14:44:12.836Z,13.63
2022-10-31T14:46:49.144Z,14.70
2022-10-31T14:49:41.722Z,12.73
2022-10-31T14:52:09.529Z,14.98
2022-10-31T14:54:39.125Z,13.63
2022-10-31T14:57:08.531Z,13.95
2022-10-31T14:59:38.449Z,13.82
2022-10-31T15:02:17.113Z,14.27
2022-10-31T15:04:46.227Z,11.90
2022-10-31T15:07:24.663Z,13.30
2022-10-31T15:09:59.135Z,13.77
2022-10-31T15:12:26.302Z,14.02
2022-10-31T15:14:53.579Z,12.70
2022-10-31T15:17:21.864Z,12.80
2022-10-31T15:19:49.413Z,13.88
2022-10-31T15:22:17.946Z,12.30
2022-10-31T15:27:16.048Z,13.15
2022-10-31T15:29:50.493Z,11.68
2022-10-31T15:32:21.233Z,12.85
2022-10-31T15:34:48.553Z,13.23
2022-10-31T15:37:17.021Z,13.07
2022-10-31T15:44:41.448Z,12.60
2022-10-31T15:47:17.173Z,12.32
2022-10-31T15:49:50.060Z,12.48
2022-10-31T15:52:36.286Z,12.80
2022-10-31T15:55:05.373Z,13.05
2022-10-31T15:57:32.705Z,12.30
2022-10-31T16:00:00.126Z,12.88
2022-10-31T16:02:28.280Z,13.40
2022-10-31T16:05:02.283Z,13.15
2022-10-31T16:07:32.504Z,13.88
2022-10-31T16:10:00.700Z,13.15
2022-10-31T16:12:33.422Z,13.82
2022-10-31T16:15:00.697Z,11.18
2022-10-31T16:17:28.482Z,13.80
2022-10-31T16:20:00.599Z,14.57
2022-10-31T16:22:30.006Z,12.13
2022-10-31T16:25:00.722Z,13.23
2022-10-31T16:27:30.002Z,13.75
2022-10-31T16:29:58.498Z,14.27
2022-10-31T16:32:30.450Z,12.82
2022-10-31T16:35:18.645Z,13.05
2022-10-31T16:37:45.989Z,12.77
2022-10-31T16:40:16.673Z,14.18
2022-10-31T16:42:44.764Z,14.07
2022-10-31T16:45:20.123Z,12.45
2022-10-31T16:47:47.588Z,16.60
2022-10-31T16:50:20.048Z,14.18
2022-10-31T16:55:38.196Z,13.65
2022-10-31T16:58:05.400Z,15.15
2022-10-31T17:00:32.769Z,14.52
2022-10-31T17:03:00.268Z,13.60
2022-10-31T17:05:30.259Z,13.32
2022-10-31T17:07:58.643Z,14.18
2022-10-31T17:10:26.890Z,12.82
2022-10-31T17:12:54.299Z,13.43
2022-10-31T17:15:25.914Z,14.82
2022-10-31T17:17:53.345Z,13.68
2022-10-31T17:20:20.516Z,14.63
2022-10-31T17:22:48.653Z,15.00
2022-10-31T17:25:20.275Z,15.27
2022-10-31T17:27:47.534Z,13.27
2022-10-31T17:30:15.393Z,15.10
2022-10-31T17:32:43.307Z,13.23
2022-10-31T17:35:11.008Z,14.20
2022-10-31T17:37:38.202Z,14.10
2022-10-31T17:40:05.725Z,14.10
2022-10-31T17:42:33.246Z,14.45
2022-10-31T17:45:00.505Z,15.70
2022-10-31T17:47:27.687Z,15.82
2022-10-31T17:49:54.822Z,18.75
2022-10-31T17:52:21.895Z,14.35
2022-10-31T17:54:48.975Z,14.05
2022-10-31T17:57:16.290Z,15.15
2022-10-31T17:59:43.580Z,14.00
2022-10-31T18:02:11.492Z,14.80
2022-10-31T18:04:40.514Z,14.07
2022-10-31T18:07:08.777Z,12.57
2022-10-31T18:09:36.034Z,14.23
2022-10-31T18:12:03.198Z,12.90
2022-10-31T18:14:30.309Z,13.30
2022-10-31T18:16:57.482Z,14.95
2022-10-31T18:19:24.752Z,13.75
2022-10-31T18:21:51.967Z,13.20
2022-10-31T18:24:19.098Z,11.20
2022-10-31T18:26:46.236Z,11.57
2022-10-31T18:29:13.414Z,13.15
2022-10-31T18:31:40.669Z,13.05
2022-10-31T18:34:07.835Z,13.10
2022-10-31T18:36:35.309Z,10.80
2022-10-31T18:39:03.163Z,12.05
2022-10-31T18:41:30.303Z,12.85
2022-10-31T18:44:00.088Z,10.40
2022-10-31T18:46:27.898Z,11.95
2022-10-31T18:48:55.014Z,8.93
2022-10-31T18:51:22.256Z,12.20
2022-10-31T18:54:07.578Z,12.27
2022-10-31T18:56:34.813Z,14.98
2022-10-31T18:59:03.130Z,15.52
2022-10-31T19:01:30.744Z,8.57
2022-10-31T19:03:58.897Z,7.53
2022-10-31T19:06:26.934Z,10.77
2022-10-31T19:09:06.138Z,9.82
2022-10-31T19:11:34.659Z,9.73
2022-10-31T19:14:01.787Z,9.73
2022-10-31T19:16:29.453Z,9.00
2022-10-31T19:18:57.507Z,8.88
2022-10-31T19:21:24.994Z,8.98
2022-10-31T19:23:52.963Z,9.27
2022-10-31T19:26:20.105Z,9.63
2022-10-31T19:28:47.227Z,8.70
2022-10-31T19:31:14.354Z,9.05
2022-10-31T19:33:41.448Z,8.25
2022-10-31T19:36:13.513Z,7.78
2022-10-31T19:38:41.826Z,8.23
2022-10-31T19:41:10.190Z,6.97
2022-10-31T19:43:37.333Z,7.78
2022-10-31T19:46:05.259Z,7.68
2022-10-31T19:48:32.874Z,8.20
2022-10-31T19:51:07.247Z,5.55
2022-10-31T19:53:35.011Z,6.75
2022-10-31T19:56:02.687Z,7.35
2022-10-31T19:58:30.128Z,7.90
2022-10-31T20:11:02.102Z,5.68
2022-10-31T20:13:30.627Z,6.22
2022-10-31T20:16:02.128Z,5.95
2022-10-31T20:18:29.844Z,5.50
2022-10-31T20:21:07.627Z,6.22
2022-10-31T20:23:35.322Z,5.82
2022-10-31T20:26:03.127Z,5.72
2022-10-31T20:28:31.102Z,5.93
2022-10-31T20:30:58.768Z,6.15
2022-10-31T20:33:25.934Z,5.13
2022-10-31T20:35:53.115Z,5.45
2022-10-31T20:38:20.329Z,5.30
2022-10-31T20:40:47.625Z,6.32
2022-10-31T20:43:16.433Z,6.13
2022-10-31T20:45:43.586Z,5.65
2022-10-31T20:48:10.761Z,6.70
2022-10-31T20:50:39.361Z,6.15
2022-10-31T20:55:33.951Z,5.88
2022-10-31T20:58:01.148Z,6.13
2022-10-31T21:00:28.220Z,6.38
2022-10-31T21:02:55.294Z,5.85
2022-10-31T21:05:22.400Z,5.80
2022-10-31T21:10:21.713Z,6.20
2022-10-31T21:12:48.876Z,5.68
2022-10-31T21:15:16.051Z,6.63
2022-10-31T21:17:43.157Z,5.88
2022-10-31T21:20:10.783Z,6.32
2022-10-31T21:22:38.239Z,7.03
2022-10-31T21:25:05.677Z,5.63
2022-10-31T21:27:32.911Z,5.63
2022-10-31T21:30:00.888Z,6.05
2022-10-31T21:32:28.149Z,6.57
2022-10-31T21:34:55.498Z,6.35
2022-10-31T21:37:22.610Z,6.15
2022-10-31T21:39:50.927Z,5.72
2022-10-31T21:42:21.406Z,7.53
2022-10-31T21:44:49.227Z,5.22
2022-10-31T21:47:16.375Z,5.63
2022-10-31T21:49:43.516Z,4.70
2022-10-31T21:52:10.794Z,5.00
2022-10-31T21:54:37.928Z,5.43
2022-10-31T21:57:05.118Z,5.40
2022-10-31T21:59:32.265Z,6.03
2022-10-31T22:02:00.792Z,5.55
2022-10-31T22:04:28.780Z,5.18
2022-10-31T22:06:55.914Z,5.70
2022-10-31T22:09:23.729Z,4.82
2022-10-31T22:11:50.864Z,4.78
2022-10-31T22:14:17.971Z,5.57
2022-10-31T22:16:45.283Z,5.20
2022-10-31T22:19:13.420Z,5.32
2022-10-31T22:21:44.649Z,4.82
2022-10-31T22:24:11.764Z,4.90
2022-10-31T22:26:39.371Z,5.63
2022-10-31T22:29:07.611Z,4.85
2022-10-31T22:31:35.147Z,4.97
2022-10-31T22:34:02.408Z,4.40
2022-10-31T22:36:30.996Z,3.83
2022-10-31T22:41:26.351Z,4.72
2022-10-31T22:43:54.122Z,4.30
2022-10-31T22:46:23.047Z,4.65
2022-10-31T22:48:51.985Z,5.10
2022-10-31T22:51:26.993Z,3.80
2022-10-31T22:53:56.708Z,4.97
2022-10-31T22:56:25.577Z,4.25
2022-10-31T22:58:53.369Z,4.47
2022-10-31T23:01:21.613Z,5.47
2022-10-31T23:03:49.353Z,4.35
2022-10-31T23:06:18.641Z,5.10
2022-10-31T23:08:46.109Z,4.88
2022-10-31T23:11:25.498Z,4.60
2022-10-31T23:14:09.522Z,4.72
2022-10-31T23:16:46.473Z,5.32
2022-10-31T23:19:19.544Z,4.63
2022-10-31T23:22:00.415Z,4.82
2022-10-31T23:24:35.919Z,4.15
2022-10-31T23:27:09.941Z,5.10
2022-10-31T23:29:44.755Z,5.60
2022-10-31T23:32:13.898Z,5.13
2022-10-31T23:34:40.945Z,5.28
2022-10-31T23:39:40.294Z,4.70
2022-10-31T23:42:07.646Z,4.80
2022-10-31T23:44:34.785Z,5.47
2022-10-31T23:47:02.848Z,4.68
2022-10-31T23:49:29.949Z,4.75
2022-10-31T23:51:57.815Z,4.85
2022-10-31T23:54:25.504Z,5.20
2022-10-31T23:56:53.012Z,4.10
2022-10-31T23:59:20.275Z,4.90
